McNary Field Salem US
ICAO: KSLE
IATA: SLE
Category: Medium
Scheduled Services: No

Elevation: 214 ft
TransAlt. 18000 ft.

Airport Communications:
ATIS:124.55
SEATTLE CNTR:125.8
CTAF:119.1
GND:121.9
MC MINNVILLE RDO:122.6
SALEM TWR:119.1
UNICOM:122.95

KSLE Zoom In..

If you have problems with the map follow the link
https://www.worldairports.se/pages/airport.php?
ICAO=KSLE

Runways:

(A) RW 13 length 5811 ft width 150 ft
---- / hdg 133

(B) RW 16 length 5145 ft width 100 ft
---- / hdg 164

(C) RW 31 length 5811 ft width 150 ft
ILS 110.30 / hdg 313

(D) RW 34 length 5145 ft width 100 ft
---- / hdg 344

Location; KSLE
Day. 29 / Time. 10.56 Zulu
* Altimeter: 30.29
* Temperature: 08° c. 46.4°f.
* Wind from: 180° Speed 03 kn.
Dewpoint: 07° c.
Visibility: 10 Statute Miles.
Clouds: Broken 4000 ft.
Clouds: Overcast 1000 ft.

KSLE 291056Z AUTO 18003KT 10SM BKN040 OVC100 08/07 A3029 RMK AO2 SLP256 T00830067


Wind From 180°
Speed 03 kn.

 
 
jpsmedia worldairports.se 2020   terms of use